Data for 03/16/2018

Time Sea-Level Adjusted Pressure Absolute Pressure Temperature Relative Humidity Dew Point   
(mb) (inHg) (mb) (inHg) (C) (F) (%) (C) (F)
00:05 1010 29.83 839 24.78 0.3 32.5 80 -2.8 26.9
00:10 1010 29.83 839 24.78 0.5 32.9 80 -2.6 27.2
00:15 1010 29.83 839 24.78 0.5 33 80 -2.5 27.5
00:20 1010 29.83 839 24.78 0.6 33.1 79 -2.6 27.3
00:25 1010 29.83 839 24.78 0.6 33 79 -2.7 27.1
00:30 1010 29.83 839 24.78 0.5 32.9 79 -2.6 27.3
00:35 1010 29.83 839 24.78 0.4 32.8 79 -2.7 27.1
00:40 1010 29.83 839 24.78 0.5 32.8 81 -2.5 27.5
00:45 1010 29.83 839 24.78 0.3 32.5 81 -2.6 27.3
00:50 1010 29.83 839 24.78 0.1 32.3 81 -2.7 27.1
00:55 1010 29.83 839 24.78 0.1 32.2 80 -3 26.6
01:00 1010 29.83 839 24.78 0.2 32.3 79 -3 26.6
01:05 1010 29.83 839 24.78 0.1 32.3 80 -2.9 26.8
01:10 1010 29.83 839 24.78 0.1 32.2 80 -2.9 26.8
01:15 1010 29.83 839 24.78 0 32.1 80 -2.9 26.7
01:20 1010 29.83 839 24.78 0.1 32.1 80 -3 26.7
01:25 1010 29.83 839 24.78 0 32.1 81 -2.9 26.7
01:30 1010 29.83 839 24.78 0.1 32.1 80 -3 26.6
01:35 1010 29.83 839 24.78 -0 32 80 -3 26.6
01:40 1010 29.83 840 24.81 -0 31.9 80 -3.1 26.5
01:45 1010 29.83 840 24.81 -0.1 31.8 80 -3.1 26.4
01:50 1010 29.83 840 24.81 -0.1 31.8 81 -3.1 26.5
01:55 1010 29.83 840 24.81 -0.2 31.6 81 -3.2 26.3
02:00 1010 29.83 840 24.81 -0.2 31.6 81 -3.2 26.3
02:05 1011 29.85 840 24.81 -0.1 31.8 80 -3.2 26.3
02:10 1011 29.85 840 24.81 -0.6 31 83 -3.1 26.4
02:15 1011 29.85 840 24.81 -0.6 31 82 -3.2 26.2
02:20 1011 29.85 840 24.81 -0.4 31.3 81 -3.3 26.1
02:25 1011 29.85 840 24.81 -0.3 31.5 81 -3.2 26.2
02:30 1011 29.85 840 24.81 -0.5 31.1 82 -3.2 26.3
02:35 1011 29.85 840 24.81 -0.9 30.4 84 -3.3 26.1
02:40 1011 29.85 840 24.81 -1.1 30.1 84 -3.4 25.9
02:45 1011 29.85 840 24.81 -1.2 29.8 84 -3.6 25.5
02:50 1011 29.85 840 24.81 -1.5 29.4 85 -3.6 25.5
02:55 1011 29.85 840 24.81 -1.7 29 85 -3.8 25.1
03:00 1011 29.85 840 24.81 -1.7 29 85 -3.9 25
03:05 1011 29.85 840 24.81 -1.8 28.7 84 -4.2 24.4
03:10 1011 29.85 840 24.81 -1.7 29 83 -4.2 24.5
03:15 1011 29.85 840 24.81 -1.7 28.9 84 -4.1 24.6
03:20 1011 29.85 840 24.81 -1.9 28.5 85 -4.1 24.6
03:25 1011 29.85 840 24.81 -1.9 28.6 83 -4.4 24.1
03:30 1011 29.85 840 24.81 -1.7 28.9 83 -4.3 24.2
03:35 1011 29.85 840 24.81 -1.6 29.1 82 -4.3 24.2
03:40 1011 29.85 840 24.81 -1.7 29 83 -4.2 24.4
03:45 1011 29.85 840 24.81 -1.7 29 82 -4.3 24.3
03:50 1011 29.85 840 24.81 -1.8 28.8 83 -4.2 24.4
03:55 1011 29.85 840 24.81 -1.9 28.6 83 -4.4 24
04:00 1011 29.85 840 24.81 -2 28.4 83 -4.5 23.9
04:05 1011 29.85 840 24.81 -2.1 28.1 84 -4.5 23.9
04:10 1011 29.85 840 24.81 -2.2 28.1 84 -4.6 23.8
04:15 1011 29.85 840 24.81 -2.1 28.3 82 -4.7 23.6
04:20 1011 29.85 840 24.81 -2.1 28.1 83 -4.7 23.6
04:25 1011 29.85 840 24.81 -2.3 27.8 84 -4.7 23.5
04:30 1011 29.85 840 24.81 -2.4 27.7 84 -4.7 23.6
04:35 1011 29.85 840 24.81 -2.5 27.6 84 -4.8 23.4
04:40 1011 29.85 840 24.81 -2.5 27.5 85 -4.8 23.4
04:45 1011 29.85 840 24.81 -2.4 27.6 84 -4.7 23.5
04:50 1011 29.85 840 24.81 -2.4 27.7 83 -4.8 23.3
04:55 1011 29.85 840 24.81 -2.4 27.6 83 -4.9 23.2
05:00 1011 29.85 840 24.81 -2.7 27.1 83 -5.2 22.7
05:05 1011 29.85 840 24.81 -3 26.6 84 -5.4 22.3
05:10 1011 29.85 840 24.81 -2.8 27 82 -5.4 22.3
05:15 1011 29.85 840 24.81 -2.7 27.1 82 -5.4 22.4
05:20 1011 29.85 840 24.81 -2.7 27.2 81 -5.5 22.2
05:25 1011 29.85 840 24.81 -2.6 27.4 80 -5.6 22
05:30 1011 29.85 841 24.83 -2.3 27.9 79 -5.5 22.1
05:35 1011 29.85 841 24.83 -2 28.4 76 -5.7 21.8
05:40 1011 29.85 841 24.83 -1.8 28.8 76 -5.4 22.3
05:45 1011 29.85 841 24.83 -1.7 28.9 77 -5.2 22.6
05:50 1012 29.88 841 24.83 -1.7 29 76 -5.4 22.4
05:55 1012 29.88 841 24.83 -1.7 29 75 -5.5 22.1
06:00 1012 29.88 841 24.83 -1.6 29.1 75 -5.5 22
06:05 1012 29.88 841 24.83 -1.9 28.5 76 -5.6 22
06:10 1012 29.88 841 24.83 -2.3 27.9 79 -5.5 22.1
06:15 1012 29.88 841 24.83 -2.4 27.7 78 -5.7 21.8
06:20 1012 29.88 841 24.83 -2.6 27.3 78 -5.9 21.4
06:25 1012 29.88 841 24.83 -2.7 27.2 79 -5.8 21.6
06:30 1012 29.88 841 24.83 -2.7 27.1 79 -5.8 21.6
06:35 1012 29.88 841 24.83 -2.7 27.1 79 -5.8 21.5
06:40 1012 29.88 841 24.83 -2.7 27.1 78 -6 21.2
06:45 1012 29.88 841 24.83 -2.8 27 77 -6.2 20.8
06:50 1012 29.88 841 24.83 -2.7 27.2 77 -6.2 20.9
06:55 1012 29.88 841 24.83 -2.2 28 75 -6 21.1
07:00 1012 29.88 841 24.83 -1.8 28.7 74 -5.9 21.3
07:05 1012 29.88 841 24.83 -1.9 28.5 74 -5.9 21.4
07:10 1012 29.88 841 24.83 -2.2 28.1 75 -5.9 21.3
07:15 1012 29.88 841 24.83 -2.3 27.8 76 -6 21.1
07:20 1012 29.88 841 24.83 -2.4 27.7 77 -5.9 21.3
07:25 1012 29.88 841 24.83 -2.5 27.5 77 -6 21.1
07:30 1012 29.88 841 24.83 -2.6 27.3 77 -6.1 21.1
07:35 1012 29.88 841 24.83 -2.6 27.3 78 -6 21.2
07:40 1012 29.88 841 24.83 -2.5 27.5 78 -5.8 21.5
07:45 1012 29.88 841 24.83 -2.4 27.7 77 -5.9 21.4
07:50 1012 29.88 841 24.83 -2.4 27.7 76 -6.1 21.1
07:55 1012 29.88 841 24.83 -2.1 28.1 76 -5.8 21.6
08:00 1012 29.88 841 24.83 -1.9 28.6 75 -5.7 21.7
08:05 1012 29.88 841 24.83 -1.7 28.9 74 -5.7 21.7
08:10 1012 29.88 841 24.83 -1.4 29.4 73 -5.7 21.8
08:15 1012 29.88 841 24.83 -1.3 29.6 73 -5.6 22
08:20 1012 29.88 841 24.83 -1.2 29.8 73 -5.5 22.1
08:25 1012 29.88 841 24.83 -0.9 30.5 71 -5.4 22.3
08:30 1012 29.88 841 24.83 -0.7 30.8 70 -5.4 22.2
08:35 1012 29.88 841 24.83 -0.8 30.6 72 -5.2 22.6
08:40 1012 29.88 841 24.83 -0.5 31.1 71 -5 23
08:45 1012 29.88 841 24.83 -0.3 31.5 69 -5.3 22.4
08:50 1012 29.88 841 24.83 -0.4 31.3 70 -5.2 22.7
08:55 1012 29.88 842 24.86 0 32.1 68 -5.2 22.7
09:00 1012 29.88 842 24.86 0.3 32.6 66 -5.2 22.6
09:05 1012 29.88 842 24.86 0.3 32.6 66 -5.2 22.6
09:10 1012 29.88 842 24.86 0.3 32.6 67 -5 22.9
09:15 1013 29.91 842 24.86 0.7 33.2 66 -4.9 23.2
09:20 1013 29.91 842 24.86 1.2 34.2 65 -4.7 23.5
09:25 1013 29.91 842 24.86 1.8 35.2 61 -4.8 23.3
09:30 1013 29.91 842 24.86 1.8 35.2 65 -4.2 24.5
09:35 1013 29.91 842 24.86 2.1 35.7 66 -3.6 25.6
09:40 1013 29.91 842 24.86 2.6 36.6 61 -4.2 24.5
09:45 1013 29.91 842 24.86 2.8 37 58 -4.6 23.7
09:50 1013 29.91 842 24.86 3 37.4 56 -4.9 23.1
09:55 1013 29.91 842 24.86 3.3 37.9 57 -4.5 24
10:00 1013 29.91 842 24.86 3.8 38.8 55 -4.3 24.3
10:05 1013 29.91 842 24.86 3.5 38.3 58 -4 24.8
10:10 1013 29.91 842 24.86 3.4 38.2 62 -3.2 26.2
10:15 1013 29.91 842 24.86 3.8 38.9 59 -3.4 25.9
10:20 1013 29.91 842 24.86 4 39.2 58 -3.5 25.7
10:25 1013 29.91 842 24.86 3.9 39.1 57 -3.9 25
10:30 1013 29.91 842 24.86 4.3 39.7 55 -3.9 25
10:35 1013 29.91 842 24.86 4.4 39.9 55 -3.9 25
10:40 1013 29.91 842 24.86 4.3 39.8 52 -4.6 23.7
10:45 1013 29.91 842 24.86 5 41 50 -4.5 23.8
10:50 1013 29.91 842 24.86 5.6 42.1 46 -5 22.9
10:55 1013 29.91 842 24.86 5.6 42.2 48 -4.5 24
11:00 1013 29.91 842 24.86 5.9 42.6 46 -4.8 23.4
11:05 1013 29.91 842 24.86 6 42.9 46 -4.6 23.6
11:10 1013 29.91 842 24.86 5.7 42.3 50 -3.9 24.9
11:15 1013 29.91 842 24.86 5.1 41.1 52 -4 24.8
11:20 1013 29.91 842 24.86 5 41 52 -4 24.7
11:25 1013 29.91 842 24.86 4.7 40.5 53 -4 24.8
11:30 1013 29.91 842 24.86 5.1 41.2 51 -4.3 24.2
11:35 1013 29.91 842 24.86 5.3 41.5 50 -4.4 24.1
11:40 1013 29.91 842 24.86 5.4 41.6 49 -4.6 23.8
11:45 1013 29.91 842 24.86 6.1 43 47 -4.3 24.3
11:50 1013 29.91 842 24.86 6 42.7 51 -3.5 25.7
11:55 1013 29.91 842 24.86 5.4 41.8 50 -4.2 24.5
12:00 1013 29.91 842 24.86 6.1 43.1 50 -3.6 25.5
12:05 1013 29.91 842 24.86 5.4 41.7 52 -3.7 25.4
12:10 1013 29.91 842 24.86 4.5 40.2 55 -3.8 25.1
12:15 1013 29.91 842 24.86 5.1 41.1 52 -4 24.8
12:20 1012 29.88 842 24.86 5.7 42.2 47 -4.7 23.5
12:25 1012 29.88 842 24.86 5.9 42.7 49 -4.1 24.6
12:30 1012 29.88 842 24.86 5.6 42.1 49 -4.2 24.5
12:35 1012 29.88 842 24.86 6.3 43.3 43 -5.3 22.4
12:40 1012 29.88 841 24.83 7.5 45.5 39 -5.4 22.2
12:45 1012 29.88 841 24.83 7.4 45.3 40 -5.2 22.7
12:50 1012 29.88 841 24.83 7.1 44.8 42 -4.9 23.2
12:55 1012 29.88 841 24.83 7.1 44.7 40 -5.7 21.8
13:00 1012 29.88 841 24.83 5.9 42.7 43 -5.6 21.9
13:05 1012 29.88 841 24.83 5.6 42.1 43 -6 21.3
13:10 1012 29.88 841 24.83 5.8 42.5 42 -6 21.2
13:15 1012 29.88 841 24.83 5.2 41.4 47 -5.1 22.9
13:20 1012 29.88 841 24.83 5 40.9 45 -5.9 21.3
13:25 1012 29.88 841 24.83 5.7 42.2 42 -6.1 20.9
13:30 1012 29.88 841 24.83 5.9 42.6 43 -5.8 21.5
13:35 1012 29.88 841 24.83 6.3 43.3 37 -7.2 19
13:40 1012 29.88 841 24.83 5.7 42.3 43 -5.8 21.5
13:45 1012 29.88 841 24.83 5.4 41.6 43 -6.3 20.6
13:50 1012 29.88 841 24.83 6.1 43.1 39 -6.9 19.6
13:55 1012 29.88 841 24.83 6.3 43.4 40 -6.3 20.7
14:00 1012 29.88 841 24.83 5.3 41.5 43 -6.3 20.6
14:05 1012 29.88 841 24.83 6.2 43.1 37 -7.4 18.6
14:10 1012 29.88 841 24.83 7.3 45.1 39 -5.9 21.5
14:15 1012 29.88 841 24.83 7.8 46 36 -6.5 20.4
14:20 1012 29.88 841 24.83 7.6 45.8 35 -6.7 19.9
14:25 1012 29.88 841 24.83 7.7 45.8 34 -7.3 18.9
14:30 1012 29.88 841 24.83 6.7 44.1 39 -6.2 20.9
14:35 1012 29.88 841 24.83 5.7 42.3 38 -7.4 18.6
14:40 1012 29.88 841 24.83 6.6 43.9 36 -7.4 18.7
14:45 1012 29.88 841 24.83 6.7 44 37 -7 19.5
14:50 1012 29.88 841 24.83 6.4 43.6 38 -7 19.4
14:55 1012 29.88 841 24.83 5.8 42.5 38 -7.4 18.6
15:00 1012 29.88 841 24.83 6.1 43 37 -7.6 18.4
15:05 1012 29.88 841 24.83 5.4 41.8 39 -7.4 18.7
15:10 1012 29.88 841 24.83 5.3 41.5 39 -7.4 18.7
15:15 1012 29.88 841 24.83 6.1 43 36 -7.8 18
15:20 1012 29.88 841 24.83 6.7 44 34 -8 17.6
15:25 1012 29.88 841 24.83 6.4 43.6 36 -7.5 18.6
15:30 1012 29.88 841 24.83 5.4 41.8 40 -7 19.4
15:35 1012 29.88 841 24.83 6.4 43.5 35 -8 17.6
15:40 1012 29.88 841 24.83 6.1 43 35 -8.4 16.9
15:45 1012 29.88 841 24.83 7.5 45.5 32 -8.3 17.1
15:50 1012 29.88 841 24.83 7.5 45.5 32 -8 17.6
15:55 1012 29.88 841 24.83 6.8 44.3 35 -7.6 18.3
16:00 1012 29.88 841 24.83 7.8 46 32 -8.1 17.5
16:05 1012 29.88 841 24.83 8.2 46.7 30 -8.2 17.3
16:10 1012 29.88 841 24.83 6.5 43.8 35 -8 17.6
16:15 1011 29.85 841 24.83 5.8 42.5 34 -8.9 16
16:20 1011 29.85 841 24.83 6.6 43.9 33 -8.5 16.7
16:25 1011 29.85 841 24.83 6.7 44.1 32 -8.9 15.9
16:30 1011 29.85 841 24.83 6.9 44.4 32 -8.5 16.6
16:35 1011 29.85 841 24.83 7 44.5 33 -8.4 17
16:40 1011 29.85 841 24.83 6.4 43.5 34 -8.4 16.9
16:45 1011 29.85 841 24.83 5.8 42.4 35 -8.4 16.9
16:50 1011 29.85 841 24.83 6.1 43 34 -8.4 16.8
16:55 1011 29.85 841 24.83 7.3 45.1 35 -7.1 19.2
17:00 1011 29.85 841 24.83 7.1 44.7 36 -7.1 19.2
17:05 1011 29.85 841 24.83 7.2 45 35 -7.4 18.7
17:10 1011 29.85 841 24.83 6.5 43.7 37 -7.1 19.3
17:15 1011 29.85 841 24.83 5.5 42 39 -7.2 19.1
17:20 1011 29.85 841 24.83 6 42.8 37 -7.7 18.2
17:25 1011 29.85 841 24.83 6.6 43.9 34 -8 17.7
17:30 1011 29.85 841 24.83 6.7 44.1 35 -7.8 17.9
17:35 1011 29.85 840 24.81 6.4 43.4 36 -7.6 18.3
17:40 1011 29.85 840 24.81 5.2 41.4 38 -8 17.6
17:45 1011 29.85 840 24.81 4.7 40.5 38 -8.3 17.1
17:50 1011 29.85 840 24.81 4.6 40.2 41 -7.6 18.3
17:55 1011 29.85 840 24.81 4.5 40.2 40 -8 17.6
18:00 1011 29.85 840 24.81 4.5 40 41 -7.7 18.2
18:05 1011 29.85 840 24.81 4.4 39.9 39 -8.3 17.1
18:10 1011 29.85 840 24.81 4.3 39.7 40 -8.2 17.2
18:15 1011 29.85 840 24.81 4.2 39.5 44 -7 19.5
18:20 1011 29.85 840 24.81 4.2 39.5 46 -6.5 20.3
18:25 1011 29.85 840 24.81 4 39.2 45 -6.9 19.5
18:30 1011 29.85 840 24.81 3.7 38.6 46 -7 19.4
18:35 1011 29.85 840 24.81 3.7 38.6 47 -6.7 19.9
18:40 1011 29.85 840 24.81 3.4 38.1 51 -5.8 21.6
18:45 1011 29.85 840 24.81 2.7 36.9 56 -5.2 22.6
18:50 1011 29.85 840 24.81 2.4 36.4 56 -5.5 22.2
18:55 1011 29.85 840 24.81 2.5 36.5 58 -4.9 23.2
19:00 1011 29.85 840 24.81 2.2 35.9 60 -4.8 23.3
19:05 1011 29.85 841 24.83 1.7 35.1 62 -4.7 23.5
19:10 1011 29.85 841 24.83 1.3 34.4 65 -4.6 23.7
19:15 1011 29.85 841 24.83 1.1 33.9 66 -4.7 23.6
19:20 1011 29.85 841 24.83 1.1 33.9 66 -4.6 23.7
19:25 1011 29.85 841 24.83 1.1 33.9 66 -4.5 23.8
19:30 1011 29.85 841 24.83 0.9 33.7 67 -4.5 23.9
19:35 1011 29.85 841 24.83 0.6 33.1 68 -4.6 23.8
19:40 1012 29.88 841 24.83 0.3 32.6 70 -4.6 23.8
19:45 1012 29.88 841 24.83 0.1 32.1 69 -4.9 23.3
19:50 1012 29.88 841 24.83 -0 31.9 69 -5.1 22.8
19:55 1012 29.88 841 24.83 0 32 67 -5.4 22.3
20:00 1012 29.88 841 24.83 0.2 32.4 63 -6 21.2
20:05 1012 29.88 841 24.83 0.4 32.8 64 -5.7 21.8
20:10 1012 29.88 841 24.83 0.1 32.2 65 -5.7 21.7
20:15 1012 29.88 841 24.83 0 32 65 -5.7 21.7
20:20 1012 29.88 841 24.83 -0.1 31.8 63 -6.3 20.7
20:25 1012 29.88 841 24.83 -0.2 31.7 65 -6 21.2
20:30 1012 29.88 841 24.83 -0.3 31.5 65 -6.1 21
20:35 1011 29.85 841 24.83 -0.5 31.2 68 -5.6 21.8
20:40 1011 29.85 841 24.83 -0.5 31.1 70 -5.4 22.3
20:45 1011 29.85 841 24.83 -0.3 31.5 70 -5 22.9
20:50 1012 29.88 841 24.83 -0.2 31.6 69 -5.2 22.7
20:55 1011 29.85 841 24.83 -0.2 31.6 70 -4.9 23.1
21:00 1011 29.85 841 24.83 -0.4 31.3 70 -5.2 22.7
21:05 1011 29.85 841 24.83 -0.5 31 69 -5.6 22
21:10 1011 29.85 841 24.83 -0.5 31.2 69 -5.4 22.2
21:15 1011 29.85 841 24.83 -0.6 31 70 -5.4 22.2
21:20 1011 29.85 841 24.83 -0.6 30.9 71 -5.3 22.5
21:25 1011 29.85 841 24.83 -0.8 30.6 71 -5.4 22.3
21:30 1011 29.85 841 24.83 -0.9 30.3 70 -5.7 21.8
21:35 1011 29.85 840 24.81 -1 30.3 69 -6 21.3
21:40 1011 29.85 840 24.81 -1 30.3 69 -5.9 21.4
21:45 1011 29.85 840 24.81 -1 30.2 69 -5.9 21.4
21:50 1011 29.85 840 24.81 -1 30.2 70 -5.7 21.7
21:55 1011 29.85 840 24.81 -1.1 30 70 -5.8 21.5
22:00 1011 29.85 840 24.81 -0.9 30.3 69 -5.9 21.3
22:05 1011 29.85 840 24.81 -0.9 30.3 70 -5.7 21.8
22:10 1011 29.85 840 24.81 -1.1 30.1 70 -5.9 21.4
22:15 1011 29.85 840 24.81 -1.1 30 70 -6 21.3
22:20 1011 29.85 840 24.81 -1.1 30 70 -5.9 21.3
22:25 1011 29.85 840 24.81 -1.2 29.9 69 -6.2 20.9
22:30 1011 29.85 840 24.81 -1 30.2 67 -6.3 20.6
22:35 1011 29.85 840 24.81 -0.9 30.3 66 -6.5 20.4
22:40 1011 29.85 840 24.81 -1.1 30.1 66 -6.6 20.2
22:45 1011 29.85 840 24.81 -1.2 29.8 67 -6.7 20
22:50 1011 29.85 840 24.81 -1.4 29.5 67 -6.8 19.8
22:55 1011 29.85 840 24.81 -1.4 29.6 66 -6.9 19.5
23:00 1011 29.85 840 24.81 -1.4 29.5 65 -7.2 19
23:05 1011 29.85 840 24.81 -1.4 29.4 64 -7.5 18.6
23:10 1011 29.85 840 24.81 -1.4 29.6 63 -7.6 18.4
23:15 1011 29.85 840 24.81 -1.4 29.4 62 -7.8 18
23:20 1011 29.85 840 24.81 -1.5 29.4 62 -7.9 17.9
23:25 1011 29.85 840 24.81 -1.5 29.2 62 -7.9 17.8
23:30 1011 29.85 840 24.81 -1.5 29.3 62 -7.9 17.8
23:35 1011 29.85 840 24.81 -1.5 29.3 62 -7.9 17.9
23:40 1011 29.85 840 24.81 -1.7 29 63 -7.9 17.8
23:45 1011 29.85 840 24.81 -1.5 29.3 62 -7.9 17.8
23:50 1011 29.85 840 24.81 -1.5 29.2 63 -7.8 18
23:55 1011 29.85 840 24.81 -1.7 28.9 64 -7.7 18.2
24:00 1011 29.85 840 24.81 -1.9 28.6 65 -7.6 18.3